createdAt,value
2022-11-05T00:01:39.738Z,99852.34
2022-11-05T00:06:38.888Z,99850.05
2022-11-05T00:11:38.764Z,99856.26999999999
2022-11-05T00:16:39.043Z,99851.62
2022-11-05T00:21:38.765Z,99860.20999999999
2022-11-05T00:26:30.537Z,99857.28
2022-11-05T00:31:29.101Z,99855.98
2022-11-05T00:36:29.573Z,99855.44
2022-11-05T00:41:28.914Z,99855.33
2022-11-05T00:46:29.259Z,99850.61
2022-11-05T00:51:28.937Z,99841.95999999999
2022-11-05T00:56:28.952Z,99835.16
2022-11-05T01:01:29.269Z,99846.8
2022-11-05T01:06:28.877Z,99840.25
2022-11-05T01:11:32.194Z,99833.98
2022-11-05T01:16:29.225Z,99827.39
2022-11-05T01:21:29.039Z,99827.91
2022-11-05T01:26:29.481Z,99840.99
2022-11-05T01:31:29.002Z,99841.31999999999
2022-11-05T01:36:28.950Z,99846.66
2022-11-05T01:41:29.242Z,99848.72
2022-11-05T01:46:35.808Z,99845.75
2022-11-05T01:51:29.205Z,99856.12999999999
2022-11-05T01:56:34.827Z,99862.08
2022-11-05T02:01:29.239Z,99868.17
2022-11-05T02:06:31.357Z,99866.81999999999
2022-11-05T02:11:29.070Z,99868.17
2022-11-05T02:16:38.153Z,99869.44
2022-11-05T02:21:48.834Z,99858.17
2022-11-05T02:26:48.677Z,99866.41
2022-11-05T02:31:36.184Z,99866.94
2022-11-05T02:36:39.830Z,99867.97
2022-11-05T02:41:39.170Z,99867.26999999999
2022-11-05T02:46:39.062Z,99865.12
2022-11-05T02:51:34.374Z,99873.01999999999
2022-11-05T02:56:32.062Z,99877.34
2022-11-05T03:01:29.468Z,99882.78
2022-11-05T03:06:48.679Z,99884.99
2022-11-05T03:11:32.023Z,99899.58
2022-11-05T03:16:37.825Z,99897.47
2022-11-05T03:21:39.812Z,99893.3
2022-11-05T03:26:32.703Z,99894.5
2022-11-05T03:31:30.391Z,99903.19
2022-11-05T03:36:32.638Z,99904.33
2022-11-05T03:41:30.616Z,99912.14
2022-11-05T03:46:34.208Z,99906.64
2022-11-05T03:51:37.595Z,99911.04000000001
2022-11-05T03:56:35.287Z,99917.19
2022-11-05T04:01:29.744Z,99918.0
2022-11-05T04:06:38.631Z,99929.57
2022-11-05T04:11:38.543Z,99941.17
2022-11-05T04:16:38.843Z,99951.01
2022-11-05T04:21:38.626Z,99961.0
2022-11-05T04:26:28.970Z,99963.69
2022-11-05T04:31:29.083Z,99955.33
2022-11-05T04:36:29.654Z,99964.70000000001
2022-11-05T04:41:28.984Z,99966.76999999999
2022-11-05T04:46:29.066Z,99967.28
2022-11-05T04:51:28.739Z,99964.22
2022-11-05T04:56:28.792Z,99973.44
2022-11-05T05:01:29.156Z,99987.7
2022-11-05T05:06:28.733Z,99994.45
2022-11-05T05:11:28.908Z,100006.70999999999
2022-11-05T05:16:29.085Z,100016.54999999999
2022-11-05T05:21:39.093Z,100021.15
2022-11-05T05:26:28.843Z,100034.55
2022-11-05T05:31:29.013Z,100021.11
2022-11-05T05:36:29.022Z,100024.42
2022-11-05T05:41:28.689Z,100026.17
2022-11-05T05:46:29.110Z,100040.72
2022-11-05T05:51:28.680Z,100037.01999999999
2022-11-05T05:56:28.746Z,100040.87
2022-11-05T06:01:29.162Z,100049.93
2022-11-05T06:06:29.192Z,100046.75
2022-11-05T06:11:28.704Z,100054.64
2022-11-05T06:16:34.801Z,100046.39
2022-11-05T06:21:28.685Z,100054.74
2022-11-05T06:26:28.836Z,100067.26999999999
2022-11-05T06:31:29.018Z,100076.36
2022-11-05T06:36:28.682Z,100078.09
2022-11-05T06:41:28.801Z,100094.37000000001
2022-11-05T06:46:28.781Z,100093.75
2022-11-05T06:51:29.361Z,100092.71
2022-11-05T06:56:28.947Z,100091.76999999999
2022-11-05T07:01:29.073Z,100085.47
2022-11-05T07:06:33.010Z,100082.29
2022-11-05T07:11:28.805Z,100099.59
2022-11-05T07:16:28.784Z,100104.5
2022-11-05T07:21:28.633Z,100105.92
2022-11-05T07:26:34.272Z,100102.12
2022-11-05T07:31:28.743Z,100107.25
2022-11-05T07:36:28.695Z,100094.33
2022-11-05T07:41:28.865Z,100111.87999999999
2022-11-05T07:46:28.958Z,100119.87000000001
2022-11-05T07:51:28.725Z,100116.0
2022-11-05T07:56:29.026Z,100140.16
2022-11-05T08:01:29.047Z,100139.03
2022-11-05T08:06:28.766Z,100145.15
2022-11-05T08:11:29.172Z,100158.51
2022-11-05T08:16:28.693Z,100154.6
2022-11-05T08:21:28.802Z,100173.17
2022-11-05T08:26:29.048Z,100171.1
2022-11-05T08:31:30.436Z,100165.28
2022-11-05T08:36:28.737Z,100169.48
2022-11-05T08:41:29.089Z,100158.47
2022-11-05T08:46:28.570Z,100167.72
2022-11-05T08:51:28.925Z,100176.4
2022-11-05T08:56:29.233Z,100172.99
2022-11-05T09:01:28.736Z,100167.67
2022-11-05T09:06:28.940Z,100176.08
2022-11-05T09:11:49.663Z,100191.6
2022-11-05T09:16:29.080Z,100203.78
2022-11-05T09:21:28.896Z,100197.58
2022-11-05T09:26:28.867Z,100201.42
2022-11-05T09:31:28.555Z,100213.62000000001
2022-11-05T09:36:28.594Z,100209.40000000001
2022-11-05T09:41:34.421Z,100211.7
2022-11-05T09:46:37.919Z,100218.33
2022-11-05T09:51:29.590Z,100233.17
2022-11-05T09:56:31.249Z,100234.17
2022-11-05T10:01:32.561Z,100242.74
2022-11-05T10:06:28.696Z,100244.73000000001
2022-11-05T10:11:34.512Z,100246.37
2022-11-05T10:16:31.541Z,100260.54000000001
2022-11-05T10:21:51.837Z,100270.25
2022-11-05T10:26:29.054Z,100280.21
2022-11-05T10:31:35.520Z,100283.14
2022-11-05T10:36:31.179Z,100286.21
2022-11-05T10:41:41.553Z,100283.75
2022-11-05T10:46:35.149Z,100280.72
2022-11-05T10:51:29.632Z,100297.93
2022-11-05T10:56:35.076Z,100292.3
2022-11-05T11:01:29.736Z,100289.83
2022-11-05T11:06:30.989Z,100289.12
2022-11-05T11:11:31.701Z,100295.54000000001
2022-11-05T11:16:37.426Z,100297.06999999999
2022-11-05T11:21:30.300Z,100300.47
2022-11-05T11:26:31.611Z,100305.89
2022-11-05T11:31:30.867Z,100303.94
2022-11-05T11:36:34.300Z,100301.48000000001
2022-11-05T11:41:31.784Z,100308.51
2022-11-05T11:46:32.098Z,100316.68
2022-11-05T11:51:31.110Z,100315.3
2022-11-05T11:56:29.582Z,100323.46
2022-11-05T12:01:44.567Z,100322.74
2022-11-05T12:06:35.056Z,100328.14
2022-11-05T12:11:33.262Z,100341.71
2022-11-05T12:16:40.889Z,100343.52
2022-11-05T12:21:52.585Z,100351.11
2022-11-05T12:26:39.810Z,100359.16
2022-11-05T12:31:32.502Z,100357.34
2022-11-05T12:36:38.166Z,100360.86
2022-11-05T12:41:33.875Z,100359.97
2022-11-05T12:46:34.353Z,100359.33
2022-11-05T12:51:40.886Z,100354.94
2022-11-05T12:56:34.253Z,100359.72
2022-11-05T13:01:33.786Z,100362.87
2022-11-05T13:06:34.751Z,100364.01
2022-11-05T13:11:35.508Z,100367.36
2022-11-05T13:16:33.053Z,100369.83
2022-11-05T13:21:29.750Z,100366.0
2022-11-05T13:26:37.899Z,100361.91
2022-11-05T13:31:32.511Z,100352.97
2022-11-05T13:36:43.331Z,100372.22
2022-11-05T13:41:43.902Z,100380.35
2022-11-05T13:46:40.065Z,100395.06999999999
2022-11-05T13:51:42.469Z,100398.39
2022-11-05T13:56:40.742Z,100405.02
2022-11-05T14:01:44.626Z,100416.11
2022-11-05T14:06:30.991Z,100419.73000000001
2022-11-05T14:11:31.328Z,100425.98000000001
2022-11-05T14:16:46.556Z,100439.33
2022-11-05T14:21:31.370Z,100443.46
2022-11-05T14:26:32.139Z,100444.41
2022-11-05T14:31:54.554Z,100454.98999999999
2022-11-05T14:36:31.849Z,100460.65
2022-11-05T14:41:28.804Z,100454.92
2022-11-05T14:46:39.954Z,100469.72
2022-11-05T14:51:34.795Z,100469.09000000001
2022-11-05T14:56:39.122Z,100466.49
2022-11-05T15:01:48.269Z,100473.63
2022-11-05T15:06:31.867Z,100476.58
2022-11-05T15:11:32.630Z,100476.81
2022-11-05T15:16:32.874Z,100479.64
2022-11-05T15:21:32.276Z,100485.41
2022-11-05T15:26:39.648Z,100492.0
2022-11-05T15:31:32.422Z,100496.39
2022-11-05T15:36:30.006Z,100497.39
2022-11-05T15:41:32.782Z,100506.36
2022-11-05T15:46:29.201Z,100510.94
2022-11-05T15:51:29.122Z,100512.17
2022-11-05T15:56:33.154Z,100516.47
2022-11-05T16:01:31.333Z,100515.44
2022-11-05T16:06:36.093Z,100521.51
2022-11-05T16:11:28.652Z,100525.08
2022-11-05T16:16:33.160Z,100533.62
2022-11-05T16:21:28.319Z,100533.17
2022-11-05T16:27:01.306Z,100538.81999999999
2022-11-05T16:31:30.275Z,100552.8
2022-11-05T16:36:30.124Z,100549.86
2022-11-05T16:41:28.563Z,100556.97
2022-11-05T16:46:29.792Z,100562.53
2022-11-05T16:51:28.262Z,100577.61
2022-11-05T16:56:28.527Z,100585.64
2022-11-05T17:01:28.477Z,100585.17
2022-11-05T17:06:28.501Z,100591.66
2022-11-05T17:11:28.655Z,100602.45
2022-11-05T17:16:28.379Z,100610.67
2022-11-05T17:21:28.335Z,100609.2
2022-11-05T17:26:28.756Z,100620.96
2022-11-05T17:31:28.213Z,100628.03
2022-11-05T17:36:28.378Z,100623.97
2022-11-05T17:41:28.607Z,100630.89
2022-11-05T17:46:28.205Z,100638.59
2022-11-05T17:51:28.339Z,100639.59
2022-11-05T17:56:34.422Z,100640.39
2022-11-05T18:01:30.203Z,100646.89
2022-11-05T18:06:28.227Z,100653.42000000001
2022-11-05T18:11:29.698Z,100658.4
2022-11-05T18:16:28.401Z,100659.63
2022-11-05T18:21:28.469Z,100662.72
2022-11-05T18:26:29.063Z,100662.84000000001
2022-11-05T18:31:28.351Z,100661.04000000001
2022-11-05T18:36:30.270Z,100662.85
2022-11-05T18:41:28.848Z,100663.47
2022-11-05T18:46:56.613Z,100668.20999999999
2022-11-05T18:51:28.376Z,100667.19
2022-11-05T18:56:28.719Z,100676.29
2022-11-05T19:01:29.007Z,100680.2
2022-11-05T19:06:29.187Z,100678.44
2022-11-05T19:11:28.718Z,100680.90999999999
2022-11-05T19:16:30.089Z,100687.94
2022-11-05T19:21:28.943Z,100680.83
2022-11-05T19:26:29.315Z,100691.31
2022-11-05T19:31:29.443Z,100696.37
2022-11-05T19:36:29.473Z,100705.14
2022-11-05T19:41:28.706Z,100706.81
2022-11-05T19:46:29.533Z,100711.3
2022-11-05T19:51:30.209Z,100725.47
2022-11-05T19:56:30.582Z,100723.58
2022-11-05T20:01:29.432Z,100730.21
2022-11-05T20:06:32.049Z,100734.54000000001
2022-11-05T20:11:29.004Z,100737.75
2022-11-05T20:16:31.291Z,100746.81
2022-11-05T20:21:28.675Z,100747.09
2022-11-05T20:26:28.788Z,100750.03
2022-11-05T20:31:28.176Z,100752.20000000001
2022-11-05T20:36:28.679Z,100762.86
2022-11-05T20:41:29.672Z,100762.5
2022-11-05T20:46:29.351Z,100767.6
2022-11-05T20:51:28.989Z,100775.17
2022-11-05T20:56:30.182Z,100777.31
2022-11-05T21:01:30.489Z,100775.33
2022-11-05T21:06:28.992Z,100781.12999999999
2022-11-05T21:11:28.628Z,100786.64
2022-11-05T21:16:28.146Z,100787.2
2022-11-05T21:21:28.487Z,100788.22
2022-11-05T21:26:29.946Z,100792.7
2022-11-05T21:31:28.133Z,100784.55
2022-11-05T21:36:29.435Z,100785.70999999999
2022-11-05T21:41:28.091Z,100787.73
2022-11-05T21:46:28.267Z,100801.0
2022-11-05T21:51:38.540Z,100800.34000000001
2022-11-05T21:56:38.255Z,100803.3
2022-11-05T22:01:28.339Z,100800.95
2022-11-05T22:06:28.254Z,100791.54999999999
2022-11-05T22:11:28.075Z,100793.62999999999
2022-11-05T22:16:28.086Z,100794.62
2022-11-05T22:21:28.490Z,100791.85
2022-11-05T22:26:28.656Z,100798.17
2022-11-05T22:31:31.909Z,100804.69
2022-11-05T22:36:28.282Z,100812.09999999999
2022-11-05T22:41:28.388Z,100823.15
2022-11-05T22:46:28.503Z,100830.11
2022-11-05T22:51:31.409Z,100837.66
2022-11-05T22:56:29.818Z,100830.92
2022-11-05T23:01:28.479Z,100826.75
2022-11-05T23:06:40.127Z,100829.22
2022-11-05T23:11:35.134Z,100827.17
2022-11-05T23:16:37.822Z,100827.86
2022-11-05T23:21:38.104Z,100835.90000000001
2022-11-05T23:26:37.966Z,100836.17
2022-11-05T23:31:37.874Z,100833.18000000001
2022-11-05T23:36:37.808Z,100835.77
2022-11-05T23:41:37.803Z,100825.97
2022-11-05T23:46:37.727Z,100826.19
2022-11-05T23:51:28.191Z,100836.78
2022-11-05T23:56:27.985Z,100841.12
